createdAt,value
2022-08-05T00:01:36.439Z,21.03
2022-08-05T00:04:18.841Z,20.84
2022-08-05T00:06:51.638Z,20.87
2022-08-05T00:09:21.327Z,20.78
2022-08-05T00:11:56.129Z,19.18
2022-08-05T00:14:31.437Z,19.63
2022-08-05T00:17:02.988Z,19.99
2022-08-05T00:19:33.411Z,20.01
2022-08-05T00:22:11.357Z,18.93
2022-08-05T00:24:42.573Z,19.07
2022-08-05T00:27:14.136Z,18.77
2022-08-05T00:29:46.071Z,18.47
2022-08-05T00:32:16.323Z,18.83
2022-08-05T00:35:05.102Z,19.24
2022-08-05T00:37:53.362Z,19.38
2022-08-05T00:40:27.220Z,19.40
2022-08-05T00:42:59.582Z,19.48
2022-08-05T00:45:42.988Z,19.58
2022-08-05T00:48:15.988Z,19.81
2022-08-05T00:50:47.307Z,19.89
2022-08-05T00:54:00.765Z,19.87
2022-08-05T00:56:07.903Z,20.17
2022-08-05T00:58:37.468Z,20.32
2022-08-05T01:01:08.625Z,19.98
2022-08-05T01:03:40.050Z,20.04
2022-08-05T01:06:14.164Z,19.74
2022-08-05T01:08:47.146Z,19.83
2022-08-05T01:11:22.258Z,19.80
2022-08-05T01:14:04.041Z,19.88
2022-08-05T01:16:49.150Z,19.70
2022-08-05T01:20:02.149Z,19.74
2022-08-05T01:22:34.522Z,19.61
2022-08-05T01:25:39.632Z,19.61
2022-08-05T01:28:25.400Z,19.72
2022-08-05T01:30:58.567Z,19.61
2022-08-05T01:33:35.566Z,19.73
2022-08-05T01:36:13.126Z,19.78
2022-08-05T01:38:49.755Z,19.76
2022-08-05T01:41:25.744Z,19.70
2022-08-05T01:43:57.674Z,19.47
2022-08-05T01:46:42.530Z,19.53
2022-08-05T01:49:25.075Z,19.49
2022-08-05T01:51:58.753Z,19.36
2022-08-05T01:54:32.915Z,19.49
2022-08-05T01:58:29.946Z,19.42
2022-08-05T01:59:59.662Z,19.30
2022-08-05T02:02:30.899Z,19.49
2022-08-05T02:05:06.270Z,19.42
2022-08-05T02:07:43.164Z,19.34
2022-08-05T02:10:34.846Z,19.37
2022-08-05T02:13:16.064Z,19.48
2022-08-05T02:15:51.009Z,19.35
2022-08-05T02:18:32.236Z,19.39
2022-08-05T02:21:13.245Z,19.03
2022-08-05T02:23:47.336Z,19.11
2022-08-05T02:26:39.411Z,18.92
2022-08-05T02:29:26.296Z,18.95
2022-08-05T02:32:24.064Z,18.94
2022-08-05T02:35:01.979Z,18.93
2022-08-05T02:37:47.922Z,18.92
2022-08-05T02:40:25.911Z,18.78
2022-08-05T02:42:56.867Z,18.81
2022-08-05T02:45:52.238Z,18.91
2022-08-05T02:48:20.863Z,18.71
2022-08-05T02:51:01.229Z,18.81
2022-08-05T02:53:39.173Z,18.75
2022-08-05T02:56:16.111Z,18.76
2022-08-05T02:58:51.160Z,18.78
2022-08-05T03:01:23.382Z,18.87
2022-08-05T03:04:02.139Z,18.85
2022-08-05T03:06:54.484Z,18.69
2022-08-05T03:09:36.310Z,18.75
2022-08-05T03:12:07.992Z,18.86
2022-08-05T03:14:45.796Z,18.88
2022-08-05T03:17:15.208Z,18.97
2022-08-05T03:19:45.867Z,18.76
2022-08-05T03:22:18.999Z,18.82
2022-08-05T03:25:02.278Z,18.80
2022-08-05T03:27:59.179Z,18.16
2022-08-05T03:30:34.163Z,18.03
2022-08-05T03:33:05.742Z,17.93
2022-08-05T03:35:41.101Z,17.80
2022-08-05T03:38:14.706Z,18.12
2022-08-05T03:40:45.058Z,18.16
2022-08-05T03:44:09.467Z,18.36
2022-08-05T03:46:08.306Z,18.47
2022-08-05T03:48:37.407Z,18.48
2022-08-05T03:52:48.929Z,18.35
2022-08-05T03:55:50.796Z,18.28
2022-08-05T03:57:00.724Z,18.47
2022-08-05T03:59:47.697Z,18.42
2022-08-05T04:02:38.562Z,18.27
2022-08-05T04:05:11.034Z,18.11
2022-08-05T04:07:58.161Z,18.01
2022-08-05T04:10:31.977Z,18.49
2022-08-05T04:13:07.593Z,18.67
2022-08-05T04:15:36.923Z,18.88
2022-08-05T04:18:09.309Z,19.01
2022-08-05T04:20:41.286Z,18.98
2022-08-05T04:23:16.071Z,19.26
2022-08-05T04:25:58.047Z,19.54
2022-08-05T04:28:30.815Z,19.54
2022-08-05T04:31:01.594Z,19.60
2022-08-05T04:34:17.734Z,19.54
2022-08-05T04:36:44.777Z,19.72
2022-08-05T04:39:16.491Z,19.62
2022-08-05T04:41:45.889Z,19.55
2022-08-05T04:44:21.400Z,19.76
2022-08-05T04:46:58.506Z,19.67
2022-08-05T04:50:01.402Z,20.00
2022-08-05T04:52:17.048Z,19.88
2022-08-05T04:54:49.355Z,20.10
2022-08-05T04:57:18.540Z,20.17
2022-08-05T04:59:48.090Z,20.36
2022-08-05T05:02:36.541Z,20.60
2022-08-05T05:05:26.150Z,21.10
2022-08-05T05:07:56.522Z,21.03
2022-08-05T05:10:34.798Z,21.24
2022-08-05T05:13:04.227Z,20.89
2022-08-05T05:15:56.866Z,21.14
2022-08-05T05:18:28.317Z,21.46
2022-08-05T05:21:00.391Z,21.38
2022-08-05T05:24:02.015Z,21.81
2022-08-05T05:26:19.662Z,22.16
2022-08-05T05:28:57.807Z,22.33
2022-08-05T05:31:26.797Z,22.62
2022-08-05T05:34:02.194Z,22.82
2022-08-05T05:36:32.574Z,23.28
2022-08-05T05:39:09.346Z,23.49
2022-08-05T05:41:41.933Z,23.91
2022-08-05T05:44:26.970Z,24.28
2022-08-05T05:47:04.383Z,24.57
2022-08-05T05:49:33.775Z,24.26
2022-08-05T05:52:05.694Z,24.31
2022-08-05T05:54:49.950Z,24.02
2022-08-05T05:57:21.638Z,23.66
2022-08-05T05:59:50.710Z,23.93
2022-08-05T06:02:32.337Z,24.33
2022-08-05T06:05:10.211Z,23.92
2022-08-05T06:07:41.983Z,24.43
2022-08-05T06:10:12.599Z,24.93
2022-08-05T06:12:43.684Z,25.03
2022-08-05T06:15:24.125Z,25.05
2022-08-05T06:17:54.545Z,25.32
2022-08-05T06:20:23.815Z,25.40
2022-08-05T06:22:52.657Z,25.89
2022-08-05T06:25:24.653Z,26.07
2022-08-05T06:28:20.662Z,26.14
2022-08-05T06:30:49.996Z,26.68
2022-08-05T06:33:19.349Z,26.80
2022-08-05T06:36:03.626Z,27.06
2022-08-05T06:38:37.264Z,26.99
2022-08-05T06:41:07.769Z,27.42
2022-08-05T06:43:58.328Z,27.39
2022-08-05T06:46:30.307Z,27.16
2022-08-05T06:49:01.068Z,27.12
2022-08-05T06:51:31.470Z,26.96
2022-08-05T06:54:01.855Z,27.22
2022-08-05T06:56:34.245Z,27.58
2022-08-05T06:59:09.554Z,27.73
2022-08-05T07:01:42.367Z,27.99
2022-08-05T07:04:13.935Z,28.41
2022-08-05T07:06:43.318Z,28.52
2022-08-05T07:09:12.309Z,28.41
2022-08-05T07:11:46.677Z,28.05
2022-08-05T07:14:39.477Z,28.68
2022-08-05T07:18:00.226Z,28.91
2022-08-05T07:20:31.427Z,29.10
2022-08-05T07:22:46.137Z,29.31
2022-08-05T07:25:53.866Z,29.62
2022-08-05T07:28:11.171Z,28.58
2022-08-05T07:30:43.261Z,28.49
2022-08-05T07:33:17.029Z,29.19
2022-08-05T07:36:03.518Z,29.08
2022-08-05T07:38:43.280Z,28.76
2022-08-05T07:42:13.175Z,30.08
2022-08-05T07:44:19.197Z,30.43
2022-08-05T07:46:50.517Z,30.10
2022-08-05T07:49:20.585Z,30.13
2022-08-05T07:51:54.344Z,29.57
2022-08-05T07:54:30.629Z,29.92
2022-08-05T07:57:16.905Z,30.49
2022-08-05T07:59:51.940Z,31.04
2022-08-05T08:02:30.732Z,31.30
2022-08-05T08:05:02.178Z,30.81
2022-08-05T08:07:39.588Z,31.37
2022-08-05T08:10:22.438Z,31.24
2022-08-05T08:12:51.541Z,30.51
2022-08-05T08:15:37.141Z,31.09
2022-08-05T08:18:14.348Z,29.97
2022-08-05T08:21:01.878Z,30.56
2022-08-05T08:24:01.768Z,31.04
2022-08-05T08:26:29.381Z,30.83
2022-08-05T08:29:21.636Z,31.20
2022-08-05T08:31:50.446Z,31.43
2022-08-05T08:34:30.148Z,32.95
2022-08-05T08:37:04.813Z,33.87
2022-08-05T08:39:37.635Z,33.81
2022-08-05T08:42:38.303Z,32.92
2022-08-05T08:45:20.620Z,33.53
2022-08-05T08:48:11.378Z,33.35
2022-08-05T08:51:03.549Z,33.15
2022-08-05T08:53:44.385Z,33.87
2022-08-05T08:56:14.414Z,34.66
2022-08-05T08:58:48.540Z,35.30
2022-08-05T09:01:18.812Z,35.21
2022-08-05T09:03:54.245Z,35.40
2022-08-05T09:06:30.523Z,35.56
2022-08-05T09:09:01.765Z,35.61
2022-08-05T09:11:52.007Z,36.07
2022-08-05T09:14:57.714Z,36.69
2022-08-05T09:17:40.776Z,37.38
2022-08-05T09:20:05.049Z,37.59
2022-08-05T09:23:09.558Z,37.06
2022-08-05T09:26:02.045Z,37.42
2022-08-05T09:28:32.500Z,35.77
2022-08-05T09:31:22.299Z,35.16
2022-08-05T09:33:56.679Z,35.15
2022-08-05T09:36:27.354Z,35.85
2022-08-05T09:38:59.446Z,37.19
2022-08-05T09:41:33.145Z,37.88
2022-08-05T09:44:08.057Z,37.47
2022-08-05T09:46:40.308Z,36.42
2022-08-05T09:49:54.744Z,35.52
2022-08-05T09:52:26.280Z,34.99
2022-08-05T09:54:59.381Z,34.88
2022-08-05T09:57:39.649Z,35.62
2022-08-05T10:00:15.195Z,35.94
2022-08-05T10:02:46.048Z,35.79
2022-08-05T10:05:18.222Z,34.95
2022-08-05T10:08:10.831Z,35.68
2022-08-05T10:10:50.343Z,36.78
2022-08-05T10:13:47.564Z,38.09
2022-08-05T10:16:33.769Z,39.10
2022-08-05T10:19:08.590Z,38.86
2022-08-05T10:21:40.495Z,38.79
2022-08-05T10:24:13.526Z,39.17
2022-08-05T10:26:48.970Z,38.26
2022-08-05T10:29:24.179Z,37.06
2022-08-05T10:32:55.177Z,35.89
2022-08-05T10:35:01.499Z,35.59
2022-08-05T10:37:39.996Z,35.06
2022-08-05T10:40:28.215Z,34.53
2022-08-05T10:43:06.212Z,34.87
2022-08-05T10:45:42.137Z,36.01
2022-08-05T10:48:36.099Z,36.47
2022-08-05T10:51:23.037Z,36.85
2022-08-05T10:54:01.646Z,36.73
2022-08-05T10:56:46.716Z,36.87
2022-08-05T11:00:02.260Z,37.85
2022-08-05T11:02:14.463Z,39.06
2022-08-05T11:05:00.953Z,39.03
2022-08-05T11:07:32.761Z,39.46
2022-08-05T11:10:09.526Z,38.79
2022-08-05T11:12:50.439Z,38.55
2022-08-05T11:15:59.338Z,38.45
2022-08-05T11:18:30.251Z,39.01
2022-08-05T11:21:02.980Z,39.01
2022-08-05T11:24:05.020Z,38.61
2022-08-05T11:26:34.021Z,39.24
2022-08-05T11:29:12.962Z,39.39
2022-08-05T11:31:54.260Z,38.28
2022-08-05T11:34:52.063Z,39.20
2022-08-05T11:38:29.935Z,38.80
2022-08-05T11:41:15.429Z,39.33
2022-08-05T11:44:04.842Z,39.28
2022-08-05T11:47:10.274Z,39.76
2022-08-05T11:49:29.609Z,40.16
2022-08-05T11:52:08.317Z,39.49
2022-08-05T11:54:40.699Z,39.65
2022-08-05T11:57:24.898Z,39.18
2022-08-05T11:59:55.489Z,39.79
2022-08-05T12:02:32.057Z,40.02
2022-08-05T12:05:06.745Z,40.71
2022-08-05T12:08:08.337Z,39.88
2022-08-05T12:10:43.037Z,38.94
2022-08-05T12:13:27.946Z,40.04
2022-08-05T12:16:14.497Z,40.15
2022-08-05T12:18:49.477Z,40.40
2022-08-05T12:21:29.969Z,40.18
2022-08-05T12:24:04.982Z,40.46
2022-08-05T12:26:37.028Z,39.98
2022-08-05T12:29:09.356Z,40.75
2022-08-05T12:31:50.128Z,40.25
2022-08-05T12:34:25.721Z,39.48
2022-08-05T12:36:58.147Z,39.57
2022-08-05T12:39:37.482Z,40.17
2022-08-05T12:42:14.270Z,39.96
2022-08-05T12:44:45.913Z,40.07
2022-08-05T12:47:30.491Z,40.17
2022-08-05T12:50:03.200Z,40.11
2022-08-05T12:52:39.315Z,39.62
2022-08-05T12:55:22.371Z,40.14
2022-08-05T12:58:50.632Z,39.26
2022-08-05T13:02:01.453Z,40.38
2022-08-05T13:03:42.218Z,40.35
2022-08-05T13:06:18.190Z,40.88
2022-08-05T13:08:52.386Z,39.90
2022-08-05T13:11:25.553Z,39.12
2022-08-05T13:14:36.619Z,38.94
2022-08-05T13:17:11.140Z,37.85
2022-08-05T13:19:52.196Z,36.77
2022-08-05T13:22:27.992Z,36.52
2022-08-05T13:25:05.838Z,37.70
2022-08-05T13:27:39.286Z,38.20
2022-08-05T13:30:32.978Z,38.81
2022-08-05T13:33:01.446Z,38.61
2022-08-05T13:35:50.314Z,39.20
2022-08-05T13:38:30.878Z,39.01
2022-08-05T13:41:06.771Z,38.52
2022-08-05T13:43:45.446Z,38.89
2022-08-05T13:47:01.921Z,39.15
2022-08-05T13:49:13.772Z,39.07
2022-08-05T13:51:46.729Z,39.16
2022-08-05T13:54:21.058Z,38.93
2022-08-05T13:56:55.585Z,38.47
2022-08-05T13:59:27.208Z,38.11
2022-08-05T14:02:00.622Z,38.35
2022-08-05T14:04:51.137Z,38.47
2022-08-05T14:07:55.458Z,38.70
2022-08-05T14:10:13.042Z,38.94
2022-08-05T14:12:48.712Z,39.39
2022-08-05T14:16:05.641Z,39.67
2022-08-05T14:18:14.916Z,39.30
2022-08-05T14:20:47.968Z,38.92
2022-08-05T14:23:19.210Z,38.40
2022-08-05T14:25:58.180Z,38.16
2022-08-05T14:28:30.508Z,37.34
2022-08-05T14:31:01.059Z,36.13
2022-08-05T14:33:56.584Z,35.78
2022-08-05T14:36:21.657Z,35.93
2022-08-05T14:38:51.629Z,36.47
2022-08-05T14:41:21.053Z,37.14
2022-08-05T14:44:00.145Z,37.55
2022-08-05T14:46:34.970Z,37.85
2022-08-05T14:49:07.754Z,38.04
2022-08-05T14:51:38.151Z,37.86
2022-08-05T14:54:27.664Z,37.62
2022-08-05T14:56:57.125Z,37.71
2022-08-05T14:59:35.814Z,37.35
2022-08-05T15:02:15.707Z,37.76
2022-08-05T15:04:47.671Z,37.48
2022-08-05T15:08:06.014Z,37.43
2022-08-05T15:10:09.777Z,37.90
2022-08-05T15:12:59.648Z,37.95
2022-08-05T15:15:54.420Z,37.08
2022-08-05T15:18:18.821Z,37.45
2022-08-05T15:20:47.722Z,37.73
2022-08-05T15:23:16.812Z,37.71
2022-08-05T15:25:53.332Z,37.81
2022-08-05T15:28:27.809Z,37.74
2022-08-05T15:30:58.470Z,38.06
2022-08-05T15:34:18.435Z,37.72
2022-08-05T15:36:24.466Z,37.69
2022-08-05T15:41:03.739Z,37.28
2022-08-05T15:41:56.143Z,37.00
2022-08-05T15:44:30.423Z,37.46
2022-08-05T15:47:03.722Z,37.41
2022-08-05T15:49:48.203Z,37.54
2022-08-05T15:52:53.911Z,36.46
2022-08-05T15:55:16.234Z,37.37
2022-08-05T15:57:46.050Z,36.57
2022-08-05T16:00:28.706Z,36.07
2022-08-05T16:03:09.484Z,35.62
2022-08-05T16:05:38.945Z,36.18
2022-08-05T16:08:08.021Z,36.24
2022-08-05T16:10:37.088Z,36.27
2022-08-05T16:13:06.172Z,36.24
2022-08-05T16:15:35.075Z,35.90
2022-08-05T16:18:04.145Z,35.55
2022-08-05T16:20:39.466Z,35.39
2022-08-05T16:23:09.358Z,35.49
2022-08-05T16:25:38.463Z,35.70
2022-08-05T16:28:09.561Z,35.64
2022-08-05T16:30:39.285Z,35.72
2022-08-05T16:33:10.630Z,35.40
2022-08-05T16:35:42.225Z,34.76
2022-08-05T16:38:23.860Z,34.51
2022-08-05T16:41:00.059Z,34.61
2022-08-05T16:43:31.568Z,35.02
2022-08-05T16:46:07.556Z,34.86
2022-08-05T16:48:51.421Z,34.77
2022-08-05T16:51:21.695Z,34.71
2022-08-05T16:54:02.754Z,34.42
2022-08-05T16:56:36.538Z,34.30
2022-08-05T16:59:11.909Z,34.08
2022-08-05T17:01:53.038Z,33.60
2022-08-05T17:04:27.486Z,33.38
2022-08-05T17:07:01.062Z,33.21
2022-08-05T17:09:57.708Z,32.87
2022-08-05T17:12:22.747Z,32.94
2022-08-05T17:15:10.309Z,32.87
2022-08-05T17:17:44.784Z,32.70
2022-08-05T17:20:14.811Z,32.24
2022-08-05T17:22:45.503Z,32.41
2022-08-05T17:25:39.294Z,32.04
2022-08-05T17:28:09.941Z,31.86
2022-08-05T17:30:50.297Z,31.80
2022-08-05T17:33:22.074Z,31.73
2022-08-05T17:36:08.623Z,31.52
2022-08-05T17:38:42.730Z,31.62
2022-08-05T17:42:16.619Z,31.44
2022-08-05T17:44:00.752Z,31.39
2022-08-05T17:46:32.368Z,31.17
2022-08-05T17:49:01.222Z,31.03
2022-08-05T17:51:40.584Z,31.20
2022-08-05T17:54:11.351Z,30.80
2022-08-05T17:56:43.158Z,30.81
2022-08-05T17:59:13.809Z,30.72
2022-08-05T18:01:50.564Z,30.61
2022-08-05T18:04:21.047Z,30.63
2022-08-05T18:06:50.472Z,30.66
2022-08-05T18:09:20.794Z,30.78
2022-08-05T18:11:52.594Z,30.47
2022-08-05T18:14:21.675Z,30.17
2022-08-05T18:16:52.479Z,30.43
2022-08-05T18:19:22.649Z,30.25
2022-08-05T18:22:07.120Z,30.12
2022-08-05T18:24:39.414Z,29.87
2022-08-05T18:27:18.890Z,30.02
2022-08-05T18:29:53.604Z,30.05
2022-08-05T18:32:27.978Z,29.55
2022-08-05T18:34:57.752Z,29.64
2022-08-05T18:37:34.742Z,29.56
2022-08-05T18:40:33.699Z,29.58
2022-08-05T18:43:01.266Z,29.50
2022-08-05T18:45:41.722Z,29.42
2022-08-05T18:48:12.119Z,29.33
2022-08-05T18:52:06.505Z,29.24
2022-08-05T18:54:07.495Z,29.19
2022-08-05T18:56:39.266Z,29.05
2022-08-05T18:59:42.101Z,28.89
2022-08-05T19:01:58.453Z,28.74
2022-08-05T19:04:29.410Z,28.74
2022-08-05T19:06:58.581Z,28.84
2022-08-05T19:09:27.549Z,28.79
2022-08-05T19:12:11.408Z,28.45
2022-08-05T19:15:00.685Z,28.34
2022-08-05T19:17:58.275Z,28.50
2022-08-05T19:20:18.844Z,28.51
2022-08-05T19:22:49.738Z,28.34
2022-08-05T19:25:22.179Z,27.97
2022-08-05T19:28:00.775Z,26.02
2022-08-05T19:30:29.841Z,26.38
2022-08-05T19:32:58.652Z,26.93
2022-08-05T19:35:28.294Z,27.02
2022-08-05T19:38:20.335Z,27.05
2022-08-05T19:40:55.625Z,26.76
2022-08-05T19:44:06.191Z,26.79
2022-08-05T19:46:16.630Z,26.95
2022-08-05T19:48:57.967Z,27.01
2022-08-05T19:52:05.131Z,26.93
2022-08-05T19:54:29.443Z,27.04
2022-08-05T19:57:02.123Z,26.99
2022-08-05T19:59:59.564Z,26.33
2022-08-05T20:02:22.158Z,26.20
2022-08-05T20:04:51.981Z,25.48
2022-08-05T20:07:48.346Z,25.69
2022-08-05T20:10:13.468Z,25.72
2022-08-05T20:12:47.597Z,25.92
2022-08-05T20:15:48.876Z,26.09
2022-08-05T20:18:32.623Z,26.08
2022-08-05T20:20:59.998Z,26.13
2022-08-05T20:23:39.398Z,25.93
2022-08-05T20:26:18.973Z,26.18
2022-08-05T20:28:50.720Z,26.22
2022-08-05T20:31:36.924Z,26.07
2022-08-05T20:34:12.356Z,26.12
2022-08-05T20:36:43.418Z,25.94
2022-08-05T20:39:13.557Z,25.73
2022-08-05T20:41:47.662Z,25.75
2022-08-05T20:44:29.625Z,25.65
2022-08-05T20:47:03.455Z,25.44
2022-08-05T20:49:37.825Z,25.14
2022-08-05T20:52:10.466Z,25.50
2022-08-05T20:54:59.504Z,25.47
2022-08-05T20:57:44.021Z,25.45
2022-08-05T21:00:40.661Z,25.43
2022-08-05T21:03:08.311Z,25.47
2022-08-05T21:05:47.620Z,25.33
2022-08-05T21:08:26.542Z,25.28
2022-08-05T21:11:09.190Z,25.28
2022-08-05T21:13:48.229Z,25.35
2022-08-05T21:16:29.569Z,25.21
2022-08-05T21:19:03.445Z,25.21
2022-08-05T21:21:43.689Z,25.14
2022-08-05T21:24:20.036Z,25.03
2022-08-05T21:26:53.638Z,25.03
2022-08-05T21:29:31.843Z,25.18
2022-08-05T21:32:03.219Z,25.04
2022-08-05T21:34:35.609Z,24.61
2022-08-05T21:37:04.912Z,24.76
2022-08-05T21:39:34.822Z,24.77
2022-08-05T21:42:30.626Z,24.65
2022-08-05T21:44:58.784Z,24.63
2022-08-05T21:47:55.062Z,24.61
2022-08-05T21:50:17.945Z,24.55
2022-08-05T21:52:47.389Z,24.55
2022-08-05T21:55:17.260Z,24.33
2022-08-05T21:57:46.442Z,24.30
2022-08-05T22:00:16.204Z,24.39
2022-08-05T22:02:45.725Z,23.77
2022-08-05T22:05:14.894Z,23.75
2022-08-05T22:07:59.483Z,23.43
2022-08-05T22:10:31.549Z,22.50
2022-08-05T22:14:05.001Z,22.61
2022-08-05T22:16:00.285Z,23.16
2022-08-05T22:18:33.748Z,23.55
2022-08-05T22:21:04.714Z,23.74
2022-08-05T22:24:01.794Z,23.77
2022-08-05T22:26:50.557Z,23.55
2022-08-05T22:29:26.659Z,23.54
2022-08-05T22:32:03.278Z,23.21
2022-08-05T22:34:33.211Z,23.23
2022-08-05T22:37:04.681Z,23.18
2022-08-05T22:39:35.402Z,23.16
2022-08-05T22:42:12.585Z,23.14
2022-08-05T22:44:48.238Z,23.09
2022-08-05T22:47:29.970Z,23.12
2022-08-05T22:50:19.029Z,23.32
2022-08-05T22:52:49.783Z,23.29
2022-08-05T22:55:26.033Z,23.25
2022-08-05T22:57:55.641Z,23.25
2022-08-05T23:00:27.049Z,23.41
2022-08-05T23:02:56.469Z,23.38
2022-08-05T23:05:27.320Z,22.94
2022-08-05T23:07:56.167Z,22.96
2022-08-05T23:10:26.501Z,22.61
2022-08-05T23:12:56.047Z,22.80
2022-08-05T23:15:27.124Z,22.89
2022-08-05T23:18:03.414Z,22.68
2022-08-05T23:20:37.483Z,22.57
2022-08-05T23:23:08.302Z,22.60
2022-08-05T23:25:53.203Z,22.75
2022-08-05T23:28:29.089Z,22.16
2022-08-05T23:31:15.729Z,22.22
2022-08-05T23:34:05.071Z,22.57
2022-08-05T23:36:38.722Z,22.51
2022-08-05T23:39:10.425Z,22.53
2022-08-05T23:41:48.694Z,22.50
2022-08-05T23:44:19.782Z,22.71
2022-08-05T23:46:51.567Z,22.76
2022-08-05T23:49:23.768Z,22.75
2022-08-05T23:52:11.865Z,22.79
2022-08-05T23:54:40.980Z,22.83
2022-08-05T23:57:12.014Z,22.95
